createdAt,value
2022-11-14T00:01:26.007Z,109.70
2022-11-14T00:03:54.400Z,100.60
2022-11-14T00:06:22.357Z,109.20
2022-11-14T00:08:50.180Z,102.10
2022-11-14T00:11:18.038Z,101.30
2022-11-14T00:13:46.520Z,93.00
2022-11-14T00:16:14.389Z,97.20
2022-11-14T00:18:42.251Z,96.00
2022-11-14T00:21:10.137Z,98.60
2022-11-14T00:23:38.053Z,95.90
2022-11-14T00:26:06.014Z,101.30
2022-11-14T00:28:34.469Z,92.00
2022-11-14T00:31:02.297Z,99.80
2022-11-14T00:33:30.044Z,99.60
2022-11-14T00:35:57.925Z,101.10
2022-11-14T00:38:25.843Z,105.10
2022-11-14T00:40:53.742Z,94.10
2022-11-14T00:43:21.538Z,98.30
2022-11-14T00:45:49.358Z,103.50
2022-11-14T00:48:17.464Z,100.60
2022-11-14T00:50:45.394Z,102.50
2022-11-14T00:53:13.798Z,95.20
2022-11-14T00:55:42.846Z,93.10
2022-11-14T00:58:10.968Z,97.60
2022-11-14T01:00:39.217Z,106.90
2022-11-14T01:03:07.128Z,111.80
2022-11-14T01:05:43.570Z,102.50
2022-11-14T01:08:13.026Z,103.40
2022-11-14T01:10:47.629Z,108.40
2022-11-14T01:13:17.225Z,104.10
2022-11-14T01:15:47.956Z,98.90
2022-11-14T01:18:20.085Z,100.90
2022-11-14T01:20:49.010Z,108.60
2022-11-14T01:23:17.143Z,116.20
2022-11-14T01:25:45.504Z,107.30
2022-11-14T01:28:18.042Z,104.50
2022-11-14T01:30:46.167Z,98.90
2022-11-14T01:33:13.947Z,103.70
2022-11-14T01:35:41.910Z,103.40
2022-11-14T01:38:13.391Z,100.00
2022-11-14T01:40:43.783Z,102.10
2022-11-14T01:43:11.560Z,102.20
2022-11-14T01:45:57.800Z,108.20
2022-11-14T01:48:37.182Z,104.10
2022-11-14T01:51:38.373Z,115.70
2022-11-14T01:54:11.333Z,98.80
2022-11-14T01:56:44.377Z,112.50
2022-11-14T01:59:18.513Z,106.80
2022-11-14T02:01:50.311Z,107.30
2022-11-14T02:04:30.862Z,110.90
2022-11-14T02:07:01.861Z,105.80
2022-11-14T02:09:33.031Z,113.40
2022-11-14T02:12:02.975Z,112.20
2022-11-14T02:14:31.259Z,115.20
2022-11-14T02:17:22.727Z,107.60
2022-11-14T02:20:11.951Z,124.40
2022-11-14T02:22:42.308Z,118.60
2022-11-14T02:25:13.471Z,116.10
2022-11-14T02:27:41.697Z,109.60
2022-11-14T02:30:15.148Z,112.60
2022-11-14T02:33:10.583Z,121.70
2022-11-14T02:35:30.877Z,116.50
2022-11-14T02:37:58.796Z,107.20
2022-11-14T02:40:26.597Z,118.00
2022-11-14T02:42:54.635Z,118.50
2022-11-14T02:45:22.458Z,108.90
2022-11-14T02:47:50.294Z,106.60
2022-11-14T02:50:18.453Z,120.50
2022-11-14T02:52:46.366Z,115.30
2022-11-14T02:55:14.187Z,118.50
2022-11-14T02:57:41.960Z,114.70
2022-11-14T03:00:14.835Z,101.80
2022-11-14T03:02:43.199Z,119.50
2022-11-14T03:05:11.088Z,115.90
2022-11-14T03:07:38.972Z,116.30
2022-11-14T03:10:08.092Z,118.90
2022-11-14T03:12:35.848Z,130.80
2022-11-14T03:15:07.715Z,120.80
2022-11-14T03:17:35.637Z,111.20
2022-11-14T03:20:04.121Z,120.50
2022-11-14T03:22:31.902Z,119.30
2022-11-14T03:24:59.666Z,116.20
2022-11-14T03:27:27.507Z,116.50
2022-11-14T03:29:55.370Z,115.50
2022-11-14T03:32:23.303Z,109.20
2022-11-14T03:34:51.165Z,113.60
2022-11-14T03:37:19.063Z,112.40
2022-11-14T03:39:46.884Z,110.80
2022-11-14T03:42:14.816Z,110.40
2022-11-14T03:44:42.577Z,108.50
2022-11-14T03:47:10.560Z,110.50
2022-11-14T03:49:38.362Z,112.80
2022-11-14T03:52:06.221Z,109.30
2022-11-14T03:54:34.040Z,110.10
2022-11-14T03:57:01.835Z,109.60
2022-11-14T03:59:29.786Z,119.00
2022-11-14T04:01:57.624Z,106.60
2022-11-14T04:04:25.643Z,105.60
2022-11-14T04:06:53.511Z,109.40
2022-11-14T04:09:21.411Z,123.20
2022-11-14T04:11:49.191Z,114.50
2022-11-14T04:14:16.995Z,108.90
2022-11-14T04:16:44.749Z,112.00
2022-11-14T04:19:12.547Z,117.30
2022-11-14T04:21:40.405Z,110.80
2022-11-14T04:24:11.020Z,109.30
2022-11-14T04:26:39.219Z,105.80
2022-11-14T04:29:07.089Z,108.70
2022-11-14T04:31:34.901Z,121.60
2022-11-14T04:34:02.737Z,102.60
2022-11-14T04:36:30.558Z,112.40
2022-11-14T04:38:58.343Z,109.40
2022-11-14T04:41:26.218Z,111.60
2022-11-14T04:43:54.019Z,113.10
2022-11-14T04:46:22.322Z,111.40
2022-11-14T04:48:50.104Z,113.70
2022-11-14T04:51:18.059Z,114.10
2022-11-14T04:53:45.892Z,113.00
2022-11-14T04:56:13.714Z,117.40
2022-11-14T04:58:41.500Z,117.30
2022-11-14T05:01:11.038Z,121.80
2022-11-14T05:03:38.930Z,114.60
2022-11-14T05:06:07.378Z,113.70
2022-11-14T05:08:35.409Z,111.60
2022-11-14T05:11:03.200Z,111.70
2022-11-14T05:13:31.163Z,104.80
2022-11-14T05:16:00.370Z,113.40
2022-11-14T05:18:28.683Z,111.90
2022-11-14T05:20:59.915Z,114.60
2022-11-14T05:23:28.338Z,116.60
2022-11-14T05:26:06.053Z,118.30
2022-11-14T05:28:34.510Z,111.70
2022-11-14T05:31:09.378Z,108.40
2022-11-14T05:33:37.331Z,106.70
2022-11-14T05:36:08.537Z,105.50
2022-11-14T05:38:37.149Z,103.00
2022-11-14T05:41:14.548Z,107.60
2022-11-14T05:43:43.229Z,104.70
2022-11-14T05:46:13.971Z,105.30
2022-11-14T05:48:42.178Z,102.00
2022-11-14T05:51:12.597Z,115.20
2022-11-14T05:53:41.602Z,92.60
2022-11-14T05:56:13.405Z,103.50
2022-11-14T05:58:41.502Z,98.10
2022-11-14T06:01:13.124Z,106.40
2022-11-14T06:03:44.311Z,110.10
2022-11-14T06:06:20.131Z,111.50
2022-11-14T06:08:48.751Z,104.30
2022-11-14T06:11:20.047Z,93.60
2022-11-14T06:13:48.619Z,107.90
2022-11-14T06:16:19.019Z,101.10
2022-11-14T06:18:47.723Z,108.30
2022-11-14T06:21:22.074Z,98.80
2022-11-14T06:23:50.123Z,107.50
2022-11-14T06:26:31.683Z,99.30
2022-11-14T06:29:00.678Z,96.80
2022-11-14T06:31:28.747Z,100.70
2022-11-14T06:33:57.061Z,91.10
2022-11-14T06:36:25.080Z,89.70
2022-11-14T06:38:53.000Z,95.60
2022-11-14T06:41:22.115Z,100.20
2022-11-14T06:43:53.004Z,89.00
2022-11-14T06:46:22.667Z,92.30
2022-11-14T06:48:52.509Z,96.10
2022-11-14T06:51:20.354Z,89.70
2022-11-14T06:53:48.271Z,98.80
2022-11-14T06:56:18.161Z,95.30
2022-11-14T06:58:48.628Z,96.70
2022-11-14T07:01:19.416Z,92.60
2022-11-14T07:03:47.892Z,90.30
2022-11-14T07:06:19.276Z,95.30
2022-11-14T07:08:47.331Z,94.90
2022-11-14T07:11:25.881Z,96.80
2022-11-14T07:14:01.976Z,94.80
2022-11-14T07:16:35.613Z,100.90
2022-11-14T07:19:06.222Z,83.70
2022-11-14T07:21:35.126Z,100.40
2022-11-14T07:24:03.289Z,91.70
2022-11-14T07:26:32.091Z,94.80
2022-11-14T07:29:02.448Z,91.40
2022-11-14T07:31:30.946Z,89.50
2022-11-14T07:33:58.855Z,84.40
2022-11-14T07:36:26.623Z,83.20
2022-11-14T07:38:54.656Z,98.50
2022-11-14T07:41:22.448Z,88.40
2022-11-14T07:43:50.223Z,95.60
2022-11-14T07:46:18.649Z,84.20
2022-11-14T07:48:46.471Z,85.20
2022-11-14T07:51:19.796Z,80.00
2022-11-14T07:53:48.256Z,83.40
2022-11-14T07:56:17.345Z,80.00
2022-11-14T07:58:45.947Z,79.80
2022-11-14T08:01:14.833Z,83.40
2022-11-14T08:03:45.971Z,87.40
2022-11-14T08:06:16.047Z,84.00
2022-11-14T08:08:43.959Z,85.90
2022-11-14T08:11:12.309Z,82.70
2022-11-14T08:13:40.273Z,88.00
2022-11-14T08:16:13.526Z,85.70
2022-11-14T08:18:42.067Z,89.50
2022-11-14T08:21:09.918Z,94.20
2022-11-14T08:23:38.823Z,96.20
2022-11-14T08:26:06.831Z,94.00
2022-11-14T08:28:34.857Z,89.70
2022-11-14T08:31:04.551Z,92.30
2022-11-14T08:33:32.516Z,95.30
2022-11-14T08:36:05.625Z,88.80
2022-11-14T08:38:34.796Z,95.30
2022-11-14T08:41:03.744Z,93.00
2022-11-14T08:43:32.207Z,86.30
2022-11-14T08:46:02.742Z,84.20
2022-11-14T08:48:31.796Z,92.90
2022-11-14T08:51:07.382Z,84.50
2022-11-14T08:53:35.426Z,87.70
2022-11-14T08:56:03.687Z,84.50
2022-11-14T08:58:33.012Z,89.90
2022-11-14T09:01:07.107Z,89.10
2022-11-14T09:03:35.087Z,82.40
2022-11-14T09:06:03.503Z,92.30
2022-11-14T09:08:32.062Z,89.70
2022-11-14T09:11:05.226Z,80.20
2022-11-14T09:13:34.850Z,86.90
2022-11-14T09:16:03.010Z,80.20
2022-11-14T09:18:31.720Z,81.30
2022-11-14T09:21:06.641Z,82.30
2022-11-14T09:23:35.821Z,86.40
2022-11-14T09:26:08.669Z,93.30
2022-11-14T09:28:37.569Z,97.10
2022-11-14T09:31:09.001Z,90.30
2022-11-14T09:33:36.935Z,78.70
2022-11-14T09:36:08.293Z,101.80
2022-11-14T09:38:38.751Z,87.90
2022-11-14T09:42:16.941Z,84.30
2022-11-14T09:45:02.316Z,79.80
2022-11-14T09:47:59.928Z,82.70
2022-11-14T09:50:33.513Z,82.10
2022-11-14T09:53:33.960Z,78.80
2022-11-14T09:56:01.905Z,85.20
2022-11-14T09:58:29.928Z,67.90
2022-11-14T10:01:09.638Z,79.20
2022-11-14T10:03:58.644Z,71.90
2022-11-14T10:06:33.716Z,71.00
2022-11-14T10:09:19.874Z,74.10
2022-11-14T10:11:55.617Z,75.60
2022-11-14T10:14:53.657Z,67.10
2022-11-14T10:17:51.910Z,70.40
2022-11-14T10:20:54.676Z,72.50
2022-11-14T10:23:37.272Z,76.00
2022-11-14T10:26:30.272Z,76.50
2022-11-14T10:31:54.275Z,60.40
2022-11-14T10:34:42.873Z,72.00
2022-11-14T10:37:28.965Z,63.20
2022-11-14T10:40:14.397Z,59.80
2022-11-14T10:42:47.414Z,63.70
2022-11-14T10:45:25.312Z,68.70
2022-11-14T10:48:01.546Z,63.40
2022-11-14T10:50:59.720Z,61.20
2022-11-14T10:53:53.723Z,61.90
2022-11-14T10:56:22.115Z,61.10
2022-11-14T10:58:50.442Z,66.30
2022-11-14T11:01:35.967Z,59.00
2022-11-14T11:04:30.871Z,62.70
2022-11-14T11:07:42.744Z,57.30
2022-11-14T11:10:41.954Z,67.50
2022-11-14T11:13:15.731Z,63.10
2022-11-14T11:15:58.459Z,60.80
2022-11-14T11:18:35.685Z,61.90
2022-11-14T11:21:15.293Z,59.40
2022-11-14T11:23:53.364Z,61.40
2022-11-14T11:26:28.722Z,66.10
2022-11-14T11:29:06.537Z,59.60
2022-11-14T11:31:56.025Z,57.00
2022-11-14T11:34:34.122Z,58.00
2022-11-14T11:37:16.229Z,56.60
2022-11-14T11:39:57.716Z,58.20
2022-11-14T11:42:58.793Z,57.20
2022-11-14T11:45:19.819Z,63.00
2022-11-14T11:47:58.147Z,62.70
2022-11-14T11:50:26.171Z,57.10
2022-11-14T11:53:08.214Z,59.20
2022-11-14T11:55:44.320Z,64.30
2022-11-14T11:58:46.164Z,55.30
2022-11-14T12:01:18.124Z,54.70
2022-11-14T12:03:51.908Z,57.20
2022-11-14T12:06:29.882Z,54.40
2022-11-14T12:09:42.536Z,51.10
2022-11-14T12:12:26.026Z,51.80
2022-11-14T12:15:39.193Z,50.00
2022-11-14T12:18:39.177Z,56.20
2022-11-14T12:21:25.620Z,52.00
2022-11-14T12:24:34.767Z,51.20
2022-11-14T12:27:24.695Z,46.40
2022-11-14T12:29:55.366Z,50.00
2022-11-14T12:32:53.260Z,50.20
2022-11-14T12:35:25.818Z,44.40
2022-11-14T12:40:29.797Z,44.60
2022-11-14T12:42:59.110Z,42.80
2022-11-14T12:45:42.328Z,44.90
2022-11-14T12:48:22.970Z,45.60
2022-11-14T12:50:51.296Z,44.60
2022-11-14T12:53:37.205Z,44.10
2022-11-14T12:56:15.126Z,44.30
2022-11-14T12:59:05.417Z,42.20
2022-11-14T13:01:36.093Z,40.70
2022-11-14T13:04:26.175Z,41.80
2022-11-14T13:07:34.293Z,39.70
2022-11-14T13:10:16.708Z,41.20
2022-11-14T13:13:36.009Z,35.00
2022-11-14T13:16:23.305Z,36.90
2022-11-14T13:19:30.570Z,40.70
2022-11-14T13:22:14.646Z,37.90
2022-11-14T13:25:05.473Z,38.60
2022-11-14T13:28:05.283Z,41.10
2022-11-14T13:31:07.711Z,38.00
2022-11-14T13:33:45.481Z,42.20
2022-11-14T13:36:35.089Z,41.10
2022-11-14T13:39:15.289Z,41.20
2022-11-14T13:42:32.320Z,44.70
2022-11-14T13:45:25.927Z,55.80
2022-11-14T13:48:11.130Z,46.90
2022-11-14T13:50:40.681Z,46.20
2022-11-14T13:53:16.029Z,45.80
2022-11-14T13:56:04.530Z,48.60
2022-11-14T13:59:03.380Z,45.90
2022-11-14T14:01:59.573Z,62.50
2022-11-14T14:04:45.158Z,59.20
2022-11-14T14:07:51.102Z,52.70
2022-11-14T14:11:00.917Z,59.00
2022-11-14T14:13:55.724Z,70.10
2022-11-14T14:16:52.395Z,70.90
2022-11-14T14:19:43.291Z,70.40
2022-11-14T14:22:27.541Z,65.50
2022-11-14T14:25:07.369Z,55.00
2022-11-14T14:27:56.223Z,48.80
2022-11-14T14:30:24.571Z,56.80
2022-11-14T14:33:07.944Z,54.70
2022-11-14T14:35:40.923Z,59.80
2022-11-14T14:38:21.938Z,65.00
2022-11-14T14:40:50.050Z,89.40
2022-11-14T14:43:35.421Z,71.60
2022-11-14T14:46:06.289Z,101.70
2022-11-14T14:48:36.870Z,107.20
2022-11-14T14:51:07.656Z,124.00
2022-11-14T14:53:36.950Z,155.80
2022-11-14T14:56:25.027Z,160.10
2022-11-14T14:58:53.121Z,157.00
2022-11-14T15:01:39.640Z,137.40
2022-11-14T15:04:14.143Z,123.00
2022-11-14T15:06:46.625Z,111.30
2022-11-14T15:09:29.897Z,192.80
2022-11-14T15:12:00.542Z,226.70
2022-11-14T15:14:35.963Z,291.60
2022-11-14T15:17:04.446Z,351.80
2022-11-14T15:19:45.420Z,320.00
2022-11-14T15:22:28.099Z,185.50
2022-11-14T15:25:14.842Z,132.20
2022-11-14T15:27:52.257Z,193.40
2022-11-14T15:30:31.453Z,213.30
2022-11-14T15:33:05.706Z,210.10
2022-11-14T15:35:38.238Z,188.90
2022-11-14T15:38:37.080Z,189.10
2022-11-14T15:41:24.454Z,185.30
2022-11-14T15:43:55.424Z,183.00
2022-11-14T15:46:38.012Z,165.20
2022-11-14T15:49:14.691Z,191.20
2022-11-14T15:52:03.880Z,173.70
2022-11-14T15:54:40.410Z,177.20
2022-11-14T15:57:17.417Z,178.40
2022-11-14T15:59:45.592Z,176.90
2022-11-14T16:02:45.971Z,172.30
2022-11-14T16:05:17.663Z,172.80
2022-11-14T16:07:51.167Z,202.50
2022-11-14T16:10:27.750Z,181.60
2022-11-14T16:12:56.154Z,183.10
2022-11-14T16:15:24.502Z,191.10
2022-11-14T16:17:52.374Z,183.40
2022-11-14T16:20:27.403Z,173.80
2022-11-14T16:22:56.704Z,161.30
2022-11-14T16:25:27.763Z,169.50
2022-11-14T16:27:55.859Z,176.70
2022-11-14T16:30:29.084Z,163.60
2022-11-14T16:32:57.161Z,155.20
2022-11-14T16:35:27.093Z,157.00
2022-11-14T16:37:59.493Z,149.50
2022-11-14T16:40:28.901Z,140.50
2022-11-14T16:42:59.615Z,135.30
2022-11-14T16:45:28.408Z,133.00
2022-11-14T16:47:56.467Z,119.60
2022-11-14T16:50:24.567Z,127.70
2022-11-14T16:52:59.410Z,131.10
2022-11-14T16:55:27.595Z,104.90
2022-11-14T16:57:57.448Z,114.30
2022-11-14T17:00:25.606Z,108.50
2022-11-14T17:03:00.004Z,103.30
2022-11-14T17:05:31.422Z,102.80
2022-11-14T17:07:59.608Z,92.90
2022-11-14T17:10:27.649Z,104.00
2022-11-14T17:12:55.666Z,113.20
2022-11-14T17:15:23.572Z,114.80
2022-11-14T17:17:51.674Z,108.90
2022-11-14T17:20:19.699Z,114.70
2022-11-14T17:22:47.630Z,102.80
2022-11-14T17:25:15.534Z,105.60
2022-11-14T17:27:43.327Z,111.40
2022-11-14T17:30:15.062Z,123.80
2022-11-14T17:32:42.962Z,125.10
2022-11-14T17:35:11.055Z,118.90
2022-11-14T17:37:39.379Z,117.20
2022-11-14T17:40:14.217Z,120.30
2022-11-14T17:42:43.338Z,116.00
2022-11-14T17:45:14.101Z,111.90
2022-11-14T17:47:42.286Z,108.70
2022-11-14T17:50:12.987Z,110.10
2022-11-14T17:52:43.198Z,107.70
2022-11-14T17:55:14.284Z,109.50
2022-11-14T17:57:42.333Z,126.10
2022-11-14T18:00:10.944Z,137.40
2022-11-14T18:02:38.935Z,123.80
2022-11-14T18:05:07.543Z,132.60
2022-11-14T18:07:35.595Z,127.90
2022-11-14T18:10:03.923Z,129.90
2022-11-14T18:12:34.063Z,109.50
2022-11-14T18:15:02.246Z,107.80
2022-11-14T18:17:34.360Z,115.80
2022-11-14T18:20:04.587Z,123.10
2022-11-14T18:22:32.423Z,129.40
2022-11-14T18:25:07.510Z,134.70
2022-11-14T18:27:36.582Z,145.60
2022-11-14T18:30:20.150Z,158.90
2022-11-14T18:32:56.376Z,139.70
2022-11-14T18:35:25.984Z,141.10
2022-11-14T18:37:54.200Z,141.70
2022-11-14T18:40:22.425Z,137.00
2022-11-14T18:42:50.508Z,136.40
2022-11-14T18:45:18.678Z,151.30
2022-11-14T18:47:46.775Z,170.40
2022-11-14T18:50:15.030Z,187.10
2022-11-14T18:52:43.063Z,179.30
2022-11-14T18:55:11.229Z,189.90
2022-11-14T18:57:40.940Z,207.30
2022-11-14T19:00:09.960Z,199.70
2022-11-14T19:02:40.412Z,184.30
2022-11-14T19:05:08.809Z,164.20
2022-11-14T19:07:38.787Z,165.70
2022-11-14T19:10:07.680Z,171.70
2022-11-14T19:12:35.785Z,170.40
2022-11-14T19:15:05.628Z,148.20
2022-11-14T19:17:33.880Z,149.60
2022-11-14T19:20:01.913Z,149.40
2022-11-14T19:22:30.001Z,156.80
2022-11-14T19:24:59.173Z,173.20
2022-11-14T19:27:27.641Z,177.00
2022-11-14T19:29:55.965Z,183.30
2022-11-14T19:32:26.883Z,181.50
2022-11-14T19:34:55.061Z,181.70
2022-11-14T19:37:23.193Z,152.70
2022-11-14T19:39:55.479Z,145.40
2022-11-14T19:42:23.643Z,139.30
2022-11-14T19:44:52.677Z,137.50
2022-11-14T19:47:20.932Z,131.90
2022-11-14T19:49:49.756Z,127.60
2022-11-14T19:52:18.147Z,134.70
2022-11-14T19:54:49.265Z,133.50
2022-11-14T19:57:17.195Z,139.10
2022-11-14T19:59:45.027Z,140.10
2022-11-14T20:02:14.086Z,122.50
2022-11-14T20:04:43.655Z,106.70
2022-11-14T20:07:11.632Z,105.80
2022-11-14T20:09:42.181Z,116.80
2022-11-14T20:12:10.075Z,101.00
2022-11-14T20:14:41.318Z,95.10
2022-11-14T20:17:09.438Z,115.40
2022-11-14T20:19:41.826Z,119.60
2022-11-14T20:22:12.599Z,119.10
2022-11-14T20:24:40.687Z,110.10
2022-11-14T20:27:13.943Z,111.00
2022-11-14T20:29:41.985Z,115.70
2022-11-14T20:32:15.731Z,133.10
2022-11-14T20:34:44.071Z,133.80
2022-11-14T20:37:12.245Z,153.20
2022-11-14T20:39:40.861Z,138.70
2022-11-14T20:42:08.851Z,134.30
2022-11-14T20:44:36.710Z,143.40
2022-11-14T20:47:09.740Z,140.90
2022-11-14T20:49:38.913Z,135.70
2022-11-14T20:52:07.000Z,140.30
2022-11-14T20:54:34.846Z,148.90
2022-11-14T20:57:02.835Z,153.50
2022-11-14T20:59:30.694Z,190.10
2022-11-14T21:01:58.705Z,163.90
2022-11-14T21:04:26.537Z,165.70
2022-11-14T21:06:54.380Z,152.40
2022-11-14T21:09:22.191Z,143.00
2022-11-14T21:11:49.967Z,137.20
2022-11-14T21:14:17.855Z,134.10
2022-11-14T21:16:45.768Z,135.60
2022-11-14T21:19:13.787Z,148.80
2022-11-14T21:21:41.571Z,140.20
2022-11-14T21:24:09.533Z,136.00
2022-11-14T21:26:39.813Z,132.30
2022-11-14T21:29:14.504Z,130.80
2022-11-14T21:31:45.738Z,137.90
2022-11-14T21:34:18.147Z,132.80
2022-11-14T21:36:48.453Z,143.50
2022-11-14T21:39:19.864Z,141.80
2022-11-14T21:41:53.690Z,137.40
2022-11-14T21:44:22.318Z,134.70
2022-11-14T21:46:53.227Z,149.50
2022-11-14T21:49:21.752Z,144.70
2022-11-14T21:51:49.911Z,140.00
2022-11-14T21:54:17.899Z,149.90
2022-11-14T21:56:49.092Z,149.60
2022-11-14T21:59:18.963Z,146.40
2022-11-14T22:02:12.635Z,146.80
2022-11-14T22:04:43.275Z,144.70
2022-11-14T22:07:13.647Z,145.30
2022-11-14T22:09:45.367Z,156.40
2022-11-14T22:12:13.715Z,143.70
2022-11-14T22:14:44.094Z,127.50
2022-11-14T22:17:11.944Z,147.00
2022-11-14T22:19:39.789Z,134.90
2022-11-14T22:22:07.915Z,137.50
2022-11-14T22:24:35.790Z,129.80
2022-11-14T22:27:03.851Z,127.10
2022-11-14T22:29:31.637Z,128.10
2022-11-14T22:31:59.456Z,127.20
2022-11-14T22:34:27.463Z,135.60
2022-11-14T22:36:55.231Z,117.70
2022-11-14T22:39:23.025Z,147.80
2022-11-14T22:41:50.842Z,143.00
2022-11-14T22:44:18.734Z,135.90
2022-11-14T22:46:46.961Z,152.80
2022-11-14T22:49:19.737Z,150.90
2022-11-14T22:51:48.732Z,157.10
2022-11-14T22:54:16.669Z,151.10
2022-11-14T22:56:44.518Z,156.10
2022-11-14T22:59:12.487Z,145.70
2022-11-14T23:01:40.306Z,130.00
2022-11-14T23:04:09.281Z,156.40
2022-11-14T23:06:37.132Z,153.10
2022-11-14T23:09:05.223Z,152.20
2022-11-14T23:11:33.657Z,133.60
2022-11-14T23:14:01.542Z,138.60
2022-11-14T23:16:32.315Z,157.60
2022-11-14T23:19:02.736Z,150.90
2022-11-14T23:21:35.435Z,133.60
2022-11-14T23:26:36.517Z,138.70
2022-11-14T23:29:04.308Z,141.70
2022-11-14T23:31:32.136Z,120.60
2022-11-14T23:33:59.989Z,119.40
2022-11-14T23:36:27.932Z,124.00
2022-11-14T23:38:56.005Z,130.40
2022-11-14T23:41:27.564Z,130.30
2022-11-14T23:43:55.312Z,124.30
2022-11-14T23:46:23.111Z,104.10
2022-11-14T23:48:53.319Z,103.60
2022-11-14T23:51:21.226Z,108.60
2022-11-14T23:53:49.147Z,106.70
2022-11-14T23:56:17.106Z,109.40
2022-11-14T23:58:45.086Z,91.70
